Time;durP1;ratioP1;P1;durP2;ratioP2;P2;SDS_P1;SDS_P2;PMS_P1;PMS_P2;Temp;Humidity;BMP_temperature;BMP_pressure;BME280_temperature;BME280_humidity;BME280_pressure;Samples;Min_cycle;Max_cycle;Signal;HPM_P1;HPM_P2
2023/03/13 00:00:53;;;;;;;5.82;1.00;;;29.50;37.00;;;;;;5093022;28;20481;-56
2023/03/13 00:03:20;;;;;;;5.72;1.40;;;29.30;37.90;;;;;;5088663;28;20094;-54
2023/03/13 00:05:46;;;;;;;6.10;0.90;;;29.30;38.20;;;;;;5088971;28;21006;-56
2023/03/13 00:08:13;;;;;;;3.70;1.10;;;29.30;38.30;;;;;;5092231;28;20095;-58
2023/03/13 00:10:40;;;;;;;9.52;1.27;;;29.30;38.00;;;;;;5090380;28;20095;-52
2023/03/13 00:13:08;;;;;;;12.93;1.38;;;29.30;38.30;;;;;;5089835;28;20087;-54
2023/03/13 00:15:35;;;;;;;6.47;1.40;;;29.10;38.40;;;;;;5089365;28;20065;-56
2023/03/13 00:18:02;;;;;;;4.03;0.90;;;29.00;38.70;;;;;;5089526;28;20459;-53
2023/03/13 00:20:29;;;;;;;3.85;0.98;;;28.90;38.70;;;;;;5089722;28;20083;-52
2023/03/13 00:22:55;;;;;;;7.45;1.10;;;28.80;38.60;;;;;;5089360;28;20099;-55
2023/03/13 00:25:21;;;;;;;3.75;0.75;;;28.80;38.50;;;;;;5090095;28;20076;-58
2023/03/13 00:27:48;;;;;;;3.45;0.80;;;28.70;38.60;;;;;;5089460;28;20129;-54
2023/03/13 00:30:14;;;;;;;6.35;1.73;;;28.60;38.80;;;;;;5069948;28;20430;-55
2023/03/13 00:32:45;;;;;;;4.47;1.20;;;28.60;39.10;;;;;;5088796;28;20168;-57
2023/03/13 00:35:12;;;;;;;7.75;1.25;;;28.60;39.00;;;;;;5090719;28;20072;-52
2023/03/13 00:37:39;;;;;;;6.53;1.48;;;28.60;39.00;;;;;;5090271;28;20068;-53
2023/03/13 00:40:07;;;;;;;6.63;1.10;;;28.40;39.70;;;;;;5090923;28;20067;-56
2023/03/13 00:42:34;;;;;;;7.00;1.20;;;28.20;38.90;;;;;;5095743;28;20069;-55
2023/03/13 00:45:01;;;;;;;4.10;1.10;;;28.10;39.10;;;;;;5090475;28;20537;-55
2023/03/13 00:47:27;;;;;;;10.93;3.10;;;28.10;39.10;;;;;;5090010;28;20075;-56
2023/03/13 00:49:54;;;;;;;3.92;1.50;;;28.00;39.10;;;;;;5089814;28;20064;-57
2023/03/13 00:52:20;;;;;;;7.45;1.55;;;28.00;39.50;;;;;;5089924;28;20097;-55
2023/03/13 00:54:46;;;;;;;4.75;1.50;;;27.90;39.50;;;;;;5089310;28;20187;-53
2023/03/13 00:57:13;;;;;;;7.68;1.15;;;27.90;39.70;;;;;;5090673;28;20431;-53
2023/03/13 00:59:39;;;;;;;7.30;1.20;;;27.80;39.70;;;;;;5092522;28;21013;-55
2023/03/13 01:02:05;;;;;;;6.07;1.80;;;27.60;39.80;;;;;;5090231;28;20257;-54
2023/03/13 01:04:32;;;;;;;6.80;1.00;;;27.50;40.00;;;;;;5089270;28;20156;-52
2023/03/13 01:06:58;;;;;;;4.47;1.65;;;27.40;40.20;;;;;;5088878;28;20061;-57
2023/03/13 01:09:24;;;;;;;5.43;2.30;;;27.40;40.40;;;;;;5093317;28;20125;-56
2023/03/13 01:11:51;;;;;;;3.80;1.08;;;27.40;40.50;;;;;;5086701;28;20064;-51
2023/03/13 01:14:19;;;;;;;8.13;2.25;;;27.30;40.60;;;;;;5090246;28;20481;-55
2023/03/13 01:16:46;;;;;;;8.25;4.45;;;27.20;40.90;;;;;;5087642;28;20555;-56
2023/03/13 01:19:15;;;;;;;11.63;1.85;;;27.10;40.70;;;;;;5088722;28;20109;-58
2023/03/13 01:21:43;;;;;;;6.53;1.27;;;27.00;40.90;;;;;;5087726;28;20088;-54
2023/03/13 01:24:10;;;;;;;4.35;1.20;;;26.90;41.20;;;;;;5086488;28;20443;-55
2023/03/13 01:26:37;;;;;;;3.53;1.25;;;26.90;41.20;;;;;;5087509;28;20172;-53
2023/03/13 01:29:03;;;;;;;9.25;1.48;;;26.80;41.20;;;;;;5087910;28;20132;-55
2023/03/13 01:31:32;;;;;;;9.88;1.38;;;26.80;41.50;;;;;;5086707;28;20074;-53
2023/03/13 01:34:01;;;;;;;7.22;1.30;;;26.70;41.50;;;;;;5088441;28;20088;-55
2023/03/13 01:36:28;;;;;;;7.53;1.60;;;26.60;41.60;;;;;;5094487;28;20511;-52
2023/03/13 01:38:56;;;;;;;11.52;1.85;;;26.50;41.90;;;;;;5089235;28;20077;-54
2023/03/13 01:41:24;;;;;;;11.25;1.83;;;26.40;42.20;;;;;;5090803;28;20149;-55
2023/03/13 01:43:51;;;;;;;4.55;1.27;;;26.30;42.30;;;;;;5088338;28;20097;-52
2023/03/13 01:46:20;;;;;;;7.60;2.75;;;26.20;42.60;;;;;;5089101;28;20067;-54
2023/03/13 01:48:53;;;;;;;12.43;3.15;;;26.10;42.40;;;;;;5088969;28;20439;-54
2023/03/13 01:51:33;;;;;;;11.07;2.42;;;26.10;42.70;;;;;;5090790;28;20073;-55
2023/03/13 01:54:14;;;;;;;12.85;2.67;;;26.10;42.90;;;;;;5088634;28;20472;-55
2023/03/13 01:56:57;;;;;;;7.90;2.88;;;25.90;43.30;;;;;;5089483;28;20083;-54
2023/03/13 01:59:48;;;;;;;9.27;2.05;;;25.80;44.40;;;;;;5088814;28;20074;-57
2023/03/13 02:02:15;;;;;;;7.35;2.22;;;25.80;44.10;;;;;;5089213;28;20146;-55
2023/03/13 02:04:49;;;;;;;4.80;2.28;;;25.70;44.30;;;;;;5088382;28;20549;-54
2023/03/13 02:07:22;;;;;;;8.60;2.85;;;25.60;44.60;;;;;;5088924;28;20074;-58
2023/03/13 02:09:51;;;;;;;4.22;1.80;;;25.50;44.70;;;;;;5089434;28;20128;-56
2023/03/13 02:12:30;;;;;;;6.90;1.90;;;25.50;45.10;;;;;;5090384;28;20084;-58
2023/03/13 02:15:00;;;;;;;12.77;3.40;;;25.40;45.30;;;;;;5088701;28;20120;-58
2023/03/13 02:17:28;;;;;;;5.82;1.75;;;25.30;45.60;;;;;;5087443;28;20094;-58
2023/03/13 02:19:55;;;;;;;5.55;1.75;;;25.20;46.10;;;;;;5087750;28;20469;-57
2023/03/13 02:22:54;;;;;;;6.72;1.48;;;25.20;46.60;;;;;;5088809;28;20072;-57
2023/03/13 02:25:23;;;;;;;9.15;1.67;;;25.20;47.10;;;;;;5088035;28;20164;-58
2023/03/13 02:27:59;;;;;;;3.53;1.50;;;25.10;47.30;;;;;;5088329;28;20072;-59
2023/03/13 02:30:27;;;;;;;10.77;1.67;;;25.00;47.50;;;;;;5088155;28;20461;-55
2023/03/13 02:32:54;;;;;;;9.38;2.03;;;24.90;47.50;;;;;;5088540;28;20115;-54
2023/03/13 02:35:22;;;;;;;14.57;2.28;;;24.90;47.70;;;;;;5087815;28;20080;-55
2023/03/13 02:37:58;;;;;;;9.23;1.65;;;24.80;47.80;;;;;;5089214;28;20064;-53
2023/03/13 02:40:29;;;;;;;6.80;1.38;;;24.70;48.10;;;;;;5089670;28;20063;-54
2023/03/13 02:42:58;;;;;;;5.15;1.40;;;24.70;48.00;;;;;;5088728;28;20144;-55
2023/03/13 02:45:24;;;;;;;11.02;1.25;;;24.60;48.10;;;;;;5088851;28;20074;-53
2023/03/13 02:47:51;;;;;;;5.85;1.40;;;24.50;47.90;;;;;;5089159;28;20129;-54
2023/03/13 02:50:17;;;;;;;5.70;1.20;;;24.40;48.00;;;;;;5088293;28;20079;-54
2023/03/13 02:52:49;;;;;;;9.52;1.45;;;24.40;47.90;;;;;;5088221;28;20087;-54
2023/03/13 02:55:21;;;;;;;7.90;1.98;;;24.40;48.00;;;;;;5090333;28;20627;-56
2023/03/13 02:57:48;;;;;;;6.32;1.48;;;24.30;48.10;;;;;;5095283;28;20089;-54
2023/03/13 03:00:16;;;;;;;8.23;2.83;;;24.30;48.20;;;;;;5091969;28;20626;-56
2023/03/13 03:02:43;;;;;;;8.93;2.55;;;24.20;48.10;;;;;;5095061;28;20133;-55
2023/03/13 03:05:11;;;;;;;5.30;1.85;;;24.20;48.10;;;;;;5098623;28;20072;-56
2023/03/13 03:07:37;;;;;;;7.72;1.85;;;24.10;47.90;;;;;;5092263;28;20059;-58
2023/03/13 03:10:05;;;;;;;5.78;1.83;;;24.10;48.20;;;;;;5091687;28;20439;-60
2023/03/13 03:12:31;;;;;;;6.82;1.75;;;24.10;48.20;;;;;;5093603;28;20174;-57
2023/03/13 03:14:58;;;;;;;10.63;1.80;;;24.10;48.50;;;;;;5095145;28;20467;-56
2023/03/13 03:17:24;;;;;;;7.55;1.75;;;23.90;48.10;;;;;;5090117;28;20080;-59
2023/03/13 03:19:50;;;;;;;5.65;1.50;;;23.90;48.30;;;;;;5091170;28;20553;-57
2023/03/13 03:22:17;;;;;;;12.65;1.90;;;23.90;48.10;;;;;;5090784;28;20102;-54
2023/03/13 03:24:43;;;;;;;4.00;1.08;;;23.80;48.60;;;;;;5091229;28;20095;-59
2023/03/13 03:27:10;;;;;;;6.55;1.40;;;23.70;48.90;;;;;;5091523;28;20075;-55
2023/03/13 03:29:36;;;;;;;6.43;2.13;;;23.70;48.30;;;;;;5092204;28;20500;-54
2023/03/13 03:32:02;;;;;;;5.05;1.38;;;23.50;47.70;;;;;;5091256;28;20567;-53
2023/03/13 03:34:29;;;;;;;5.90;1.35;;;23.50;47.30;;;;;;5091752;28;20198;-52
2023/03/13 03:36:55;;;;;;;7.53;1.30;;;23.50;47.40;;;;;;5091453;28;20095;-55
2023/03/13 03:39:22;;;;;;;9.20;1.50;;;23.50;47.30;;;;;;5092807;28;20090;-55
2023/03/13 03:41:48;;;;;;;3.58;1.33;;;23.50;47.20;;;;;;5095268;28;20136;-56
2023/03/13 03:44:15;;;;;;;7.43;1.58;;;23.40;46.90;;;;;;5090920;28;20100;-51
2023/03/13 03:46:41;;;;;;;7.50;1.23;;;23.40;46.90;;;;;;5075095;28;20412;-55
2023/03/13 03:49:07;;;;;;;10.52;1.38;;;23.40;46.60;;;;;;5091320;28;20237;-52
2023/03/13 03:51:34;;;;;;;3.42;1.38;;;23.40;46.50;;;;;;5089718;28;20443;-52
2023/03/13 03:54:00;;;;;;;6.50;1.33;;;23.40;46.60;;;;;;5090787;28;20099;-55
2023/03/13 03:56:26;;;;;;;7.88;1.50;;;23.40;46.00;;;;;;5091036;28;20075;-52
2023/03/13 03:58:53;;;;;;;7.53;2.55;;;23.40;46.00;;;;;;5091281;28;20415;-54
2023/03/13 04:01:19;;;;;;;9.48;3.95;;;23.30;45.60;;;;;;5090617;28;20071;-57
2023/03/13 04:03:47;;;;;;;3.65;1.55;;;23.30;45.60;;;;;;5091219;28;20636;-53
2023/03/13 04:06:14;;;;;;;5.43;1.13;;;23.30;45.60;;;;;;5069987;28;20088;-53
2023/03/13 04:08:40;;;;;;;6.65;1.10;;;23.30;45.70;;;;;;5090654;28;20071;-55
2023/03/13 04:11:07;;;;;;;11.35;1.80;;;23.20;45.90;;;;;;5092768;28;20082;-53
2023/03/13 04:13:33;;;;;;;4.20;1.50;;;23.30;45.90;;;;;;5090555;28;20400;-51
2023/03/13 04:15:59;;;;;;;11.45;2.20;;;23.30;45.90;;;;;;5091241;28;20068;-55
2023/03/13 04:18:26;;;;;;;8.90;2.03;;;23.30;45.90;;;;;;5077943;28;20103;-52
2023/03/13 04:21:03;;;;;;;12.55;2.90;;;23.30;45.60;;;;;;5090221;28;20084;-57
2023/03/13 04:23:29;;;;;;;7.40;1.90;;;23.20;45.80;;;;;;5090194;28;20074;-53
2023/03/13 04:25:55;;;;;;;6.53;1.52;;;23.20;46.00;;;;;;5089967;28;20563;-52
2023/03/13 04:28:22;;;;;;;7.47;1.30;;;23.10;46.00;;;;;;5090560;28;20079;-54
2023/03/13 04:30:49;;;;;;;5.30;1.20;;;23.10;46.10;;;;;;5089962;28;20082;-54
2023/03/13 04:33:15;;;;;;;6.25;1.60;;;23.10;46.20;;;;;;5089991;28;20095;-55
2023/03/13 04:35:41;;;;;;;4.45;1.50;;;23.10;46.20;;;;;;5090555;28;20071;-51
2023/03/13 04:38:08;;;;;;;6.63;1.50;;;23.10;46.10;;;;;;5090103;28;20515;-55
2023/03/13 04:40:34;;;;;;;7.85;1.40;;;23.00;46.00;;;;;;5090391;28;20089;-55
2023/03/13 04:43:00;;;;;;;10.43;1.50;;;23.00;46.00;;;;;;5090519;28;20091;-49
2023/03/13 04:45:27;;;;;;;11.07;1.60;;;22.90;46.20;;;;;;5089764;28;20557;-54
2023/03/13 04:47:53;;;;;;;8.13;1.65;;;22.80;46.40;;;;;;5090290;28;20079;-54
2023/03/13 04:50:19;;;;;;;7.18;1.50;;;22.80;46.10;;;;;;5091355;28;20170;-53
2023/03/13 04:52:46;;;;;;;8.88;1.50;;;22.80;45.80;;;;;;5091167;28;20140;-54
2023/03/13 04:55:12;;;;;;;6.28;1.27;;;22.90;45.10;;;;;;5090118;28;20162;-55
2023/03/13 04:57:39;;;;;;;6.32;1.42;;;22.90;44.40;;;;;;5089909;28;20090;-56
2023/03/13 05:00:10;;;;;;;4.20;1.30;;;22.90;44.30;;;;;;5090206;28;20519;-53
2023/03/13 05:02:36;;;;;;;3.80;1.23;;;23.00;43.70;;;;;;5089931;28;20166;-56
2023/03/13 05:05:03;;;;;;;11.55;1.30;;;23.00;43.70;;;;;;5093707;28;20083;-57
2023/03/13 05:07:30;;;;;;;9.43;1.35;;;23.00;43.40;;;;;;5089695;28;20079;-55
2023/03/13 05:09:56;;;;;;;8.10;1.25;;;23.10;43.30;;;;;;5089326;28;20097;-53
2023/03/13 05:12:22;;;;;;;5.68;1.20;;;23.00;42.70;;;;;;5072127;28;20482;-55
2023/03/13 05:14:49;;;;;;;6.03;1.00;;;23.00;42.60;;;;;;5090018;28;20079;-55
2023/03/13 05:17:16;;;;;;;6.18;1.50;;;23.10;42.60;;;;;;5089454;28;20154;-55
2023/03/13 05:19:42;;;;;;;11.32;1.30;;;23.00;42.50;;;;;;5089721;28;20107;-55
2023/03/13 05:22:09;;;;;;;5.93;1.30;;;23.00;42.80;;;;;;5089610;28;20508;-53
2023/03/13 05:24:35;;;;;;;11.65;1.70;;;23.00;42.00;;;;;;5089076;28;20071;-53
2023/03/13 05:27:02;;;;;;;9.20;1.58;;;23.10;41.80;;;;;;5089356;28;20166;-54
2023/03/13 05:29:28;;;;;;;5.75;1.40;;;23.10;41.30;;;;;;5088746;28;20503;-54
2023/03/13 05:31:57;;;;;;;8.60;1.70;;;23.10;41.50;;;;;;5090362;28;20064;-51
2023/03/13 05:34:24;;;;;;;6.57;1.42;;;23.00;41.50;;;;;;5091104;28;21694;-52
2023/03/13 05:36:50;;;;;;;8.57;1.73;;;23.00;42.50;;;;;;5092384;28;20075;-52
2023/03/13 05:39:16;;;;;;;15.07;1.90;;;22.90;41.80;;;;;;5072757;28;20461;-56
2023/03/13 05:41:43;;;;;;;10.27;1.80;;;23.00;42.00;;;;;;5090401;28;20068;-53
2023/03/13 05:44:10;;;;;;;8.55;1.77;;;22.80;41.70;;;;;;5091975;28;20091;-55
2023/03/13 05:46:36;;;;;;;11.98;2.28;;;22.80;42.20;;;;;;5088826;28;20087;-52
2023/03/13 05:49:02;;;;;;;14.05;2.17;;;22.80;42.40;;;;;;5092899;28;20160;-53
2023/03/13 05:51:29;;;;;;;20.52;2.40;;;22.80;42.80;;;;;;5091748;28;20166;-58
2023/03/13 05:53:55;;;;;;;22.52;2.78;;;22.70;43.00;;;;;;5089828;28;20131;-52
2023/03/13 05:56:21;;;;;;;21.67;2.65;;;22.60;43.90;;;;;;5087537;28;20091;-57
2023/03/13 05:58:48;;;;;;;27.85;2.30;;;22.50;43.80;;;;;;5086907;28;20488;-55
2023/03/13 06:01:14;;;;;;;8.43;2.30;;;22.30;44.10;;;;;;5088035;28;20078;-57
2023/03/13 06:03:41;;;;;;;62.85;5.40;;;22.30;44.00;;;;;;5091700;28;20554;-56
2023/03/13 06:06:07;;;;;;;22.85;3.22;;;22.10;44.60;;;;;;5086100;28;20083;-56
2023/03/13 06:08:34;;;;;;;22.77;2.88;;;22.00;44.70;;;;;;5086963;28;20075;-56
2023/03/13 06:11:02;;;;;;;13.85;5.47;;;22.00;44.40;;;;;;5088421;28;20071;-53
2023/03/13 06:13:29;;;;;;;32.15;4.47;;;22.00;44.70;;;;;;5089254;28;20140;-56
2023/03/13 06:15:57;;;;;;;40.22;4.00;;;21.90;44.80;;;;;;5087294;28;20158;-57
2023/03/13 06:18:23;;;;;;;27.30;3.15;;;21.90;45.20;;;;;;5086973;28;20658;-53
2023/03/13 06:20:54;;;;;;;12.68;2.63;;;21.80;45.40;;;;;;5086884;28;20087;-55
2023/03/13 06:23:21;;;;;;;8.20;2.15;;;21.80;45.60;;;;;;5085251;28;20076;-55
2023/03/13 06:25:48;;;;;;;10.82;2.08;;;21.70;45.00;;;;;;5087057;28;20072;-53
2023/03/13 06:28:15;;;;;;;9.30;2.05;;;21.70;45.00;;;;;;5087993;28;20169;-48
2023/03/13 06:30:42;;;;;;;9.18;1.73;;;21.60;45.30;;;;;;5089778;28;20075;-54
2023/03/13 06:33:08;;;;;;;8.13;1.20;;;21.60;44.30;;;;;;5091740;28;20078;-50
2023/03/13 06:35:35;;;;;;;10.02;1.75;;;21.50;44.50;;;;;;5092136;28;20150;-52
2023/03/13 06:38:01;;;;;;;10.18;1.45;;;21.40;44.40;;;;;;5091752;28;21618;-50
2023/03/13 06:40:28;;;;;;;6.03;1.23;;;21.40;45.00;;;;;;5089016;28;20133;-53
2023/03/13 06:42:54;;;;;;;17.15;9.20;;;21.30;45.20;;;;;;5091684;28;20075;-54
2023/03/13 06:45:20;;;;;;;6.10;1.48;;;21.20;46.00;;;;;;5093531;28;20084;-51
2023/03/13 06:47:48;;;;;;;5.97;1.30;;;21.20;46.50;;;;;;5095168;28;20072;-53
2023/03/13 06:50:14;;;;;;;3.08;1.10;;;21.20;47.00;;;;;;5093845;28;20079;-54
2023/03/13 06:52:40;;;;;;;3.78;1.23;;;21.10;47.50;;;;;;5096194;28;20091;-54
2023/03/13 06:55:07;;;;;;;7.25;1.30;;;21.00;47.90;;;;;;5091615;28;20067;-51
2023/03/13 06:57:34;;;;;;;5.97;1.20;;;21.00;48.60;;;;;;5090804;28;20158;-54
2023/03/13 07:00:00;;;;;;;4.68;1.00;;;20.90;48.90;;;;;;5088048;28;20129;-53
2023/03/13 07:02:27;;;;;;;3.88;1.30;;;20.90;48.90;;;;;;5089864;28;20106;-52
2023/03/13 07:04:53;;;;;;;6.93;1.38;;;20.90;49.00;;;;;;5094735;28;20075;-51
2023/03/13 07:07:20;;;;;;;5.60;1.95;;;20.90;49.20;;;;;;5092148;28;20162;-52
2023/03/13 07:09:46;;;;;;;5.22;2.50;;;20.90;49.30;;;;;;5093300;28;20532;-50
2023/03/13 07:12:12;;;;;;;11.15;2.40;;;20.80;49.40;;;;;;5093033;28;20446;-57
2023/03/13 07:14:39;;;;;;;7.78;2.15;;;20.80;49.70;;;;;;5092100;28;20075;-50
2023/03/13 07:17:05;;;;;;;6.13;1.65;;;20.90;49.60;;;;;;5091806;28;20066;-54
2023/03/13 07:19:31;;;;;;;9.18;1.48;;;20.90;49.50;;;;;;5090852;28;20108;-48
2023/03/13 07:21:58;;;;;;;8.02;2.15;;;20.90;49.60;;;;;;5091740;28;20147;-56
2023/03/13 07:24:24;;;;;;;5.15;1.13;;;20.80;50.00;;;;;;5091422;28;20392;-52
2023/03/13 07:26:51;;;;;;;8.25;1.60;;;20.80;51.10;;;;;;5090467;28;20087;-50
2023/03/13 07:29:17;;;;;;;3.45;1.40;;;20.80;51.50;;;;;;5092049;28;20538;-51
2023/03/13 07:31:43;;;;;;;6.57;1.67;;;20.80;51.90;;;;;;5091201;28;20091;-54
2023/03/13 07:34:10;;;;;;;5.50;1.50;;;20.80;52.10;;;;;;5089900;28;20228;-52
2023/03/13 07:36:36;;;;;;;5.63;1.50;;;20.80;51.70;;;;;;5091674;28;20977;-53
2023/03/13 07:39:03;;;;;;;4.53;1.50;;;20.90;51.80;;;;;;5090492;28;20089;-50
2023/03/13 07:41:29;;;;;;;3.90;1.58;;;20.90;51.70;;;;;;5096037;28;20124;-51
2023/03/13 07:43:56;;;;;;;6.82;1.70;;;20.90;51.60;;;;;;5091399;28;20513;-51
2023/03/13 07:46:22;;;;;;;7.10;1.58;;;20.90;51.40;;;;;;5090949;28;20557;-53
2023/03/13 07:48:50;;;;;;;3.97;1.55;;;21.00;51.30;;;;;;5091429;28;20113;-49
2023/03/13 07:51:24;;;;;;;4.97;1.40;;;21.00;50.80;;;;;;5091333;28;20099;-54
2023/03/13 07:53:50;;;;;;;5.28;1.42;;;21.00;50.30;;;;;;5090396;28;20125;-49
2023/03/13 07:56:20;;;;;;;4.38;1.40;;;21.10;49.80;;;;;;5091012;28;20083;-51
2023/03/13 07:58:47;;;;;;;5.43;1.45;;;21.20;49.70;;;;;;5091488;28;20476;-51
2023/03/13 08:01:15;;;;;;;4.80;1.45;;;21.20;49.70;;;;;;5091076;28;20078;-54
2023/03/13 08:03:42;;;;;;;4.72;1.48;;;21.20;49.80;;;;;;5089898;28;20082;-55
2023/03/13 08:06:15;;;;;;;9.88;1.52;;;21.20;49.70;;;;;;5090158;28;20084;-53
2023/03/13 08:08:42;;;;;;;2.75;1.35;;;21.20;49.70;;;;;;5089922;28;20424;-56
2023/03/13 08:11:11;;;;;;;4.47;1.50;;;21.20;50.00;;;;;;5091145;28;20132;-52
2023/03/13 08:13:38;;;;;;;6.57;1.52;;;21.10;50.10;;;;;;5090645;28;20432;-54
2023/03/13 08:16:10;;;;;;;9.60;8.90;;;21.10;50.00;;;;;;5090672;28;20130;-54
2023/03/13 08:18:38;;;;;;;9.27;1.80;;;21.10;49.70;;;;;;5091585;28;20107;-52
2023/03/13 08:21:07;;;;;;;10.27;1.90;;;21.10;48.70;;;;;;5089839;28;20091;-54
2023/03/13 08:23:33;;;;;;;11.15;1.90;;;21.20;48.10;;;;;;5090176;28;20078;-51
2023/03/13 08:26:27;;;;;;;9.77;1.85;;;21.20;47.60;;;;;;5096368;28;20074;-53
2023/03/13 08:28:56;;;;;;;6.32;1.00;;;21.30;46.40;;;;;;5090126;28;20431;-55
2023/03/13 08:31:37;;;;;;;4.05;1.33;;;21.40;45.90;;;;;;5090080;28;20558;-50
2023/03/13 08:34:03;;;;;;;6.35;1.30;;;21.50;46.00;;;;;;5088939;28;20106;-53
2023/03/13 08:36:37;;;;;;;6.32;1.33;;;21.50;45.40;;;;;;5089181;28;20523;-48
2023/03/13 08:39:10;;;;;;;4.72;1.10;;;21.50;45.30;;;;;;5089896;28;20091;-54
2023/03/13 08:41:39;;;;;;;80.20;3.97;;;21.60;45.10;;;;;;5090689;28;20089;-55
2023/03/13 08:44:06;;;;;;;5.55;1.20;;;21.60;44.80;;;;;;5090366;28;20122;-52
2023/03/13 08:46:35;;;;;;;5.00;1.38;;;21.60;44.80;;;;;;5088529;28;20454;-50
2023/03/13 08:49:03;;;;;;;6.97;1.58;;;21.60;44.90;;;;;;5089569;28;20136;-50
2023/03/13 08:51:29;;;;;;;7.32;1.20;;;21.50;44.80;;;;;;5089283;28;20064;-51
2023/03/13 08:53:56;;;;;;;12.10;1.58;;;21.50;44.80;;;;;;5089473;28;20392;-55
2023/03/13 08:56:26;;;;;;;7.15;1.40;;;21.50;45.10;;;;;;5090443;28;20064;-55
2023/03/13 08:58:56;;;;;;;4.38;1.35;;;21.40;45.20;;;;;;5090457;28;20064;-50
2023/03/13 09:01:25;;;;;;;5.82;1.23;;;21.40;45.40;;;;;;5089796;28;20083;-55
2023/03/13 09:03:52;;;;;;;5.65;1.25;;;21.40;45.50;;;;;;5091055;28;20080;-54
2023/03/13 09:06:18;;;;;;;4.43;1.17;;;21.40;45.60;;;;;;5090736;28;20075;-53
2023/03/13 09:08:45;;;;;;;3.95;1.58;;;21.30;45.60;;;;;;5089483;28;20102;-50
2023/03/13 09:11:17;;;;;;;4.75;1.40;;;21.30;45.60;;;;;;5090287;28;20078;-49
2023/03/13 09:13:45;;;;;;;7.50;1.30;;;21.30;45.70;;;;;;5090280;28;20087;-52
2023/03/13 09:16:15;;;;;;;5.90;2.00;;;21.20;45.90;;;;;;5088996;28;20145;-53
2023/03/13 09:18:42;;;;;;;7.75;1.52;;;21.20;45.80;;;;;;5088322;28;20193;-52
2023/03/13 09:21:13;;;;;;;12.65;1.60;;;21.20;45.90;;;;;;5089030;28;20084;-55
2023/03/13 09:23:40;;;;;;;5.28;1.30;;;21.20;45.80;;;;;;5089999;28;20072;-54
2023/03/13 09:26:06;;;;;;;7.10;1.17;;;21.20;45.80;;;;;;5089361;28;20111;-55
2023/03/13 09:28:33;;;;;;;9.25;1.58;;;21.10;45.90;;;;;;5088399;28;20102;-53
2023/03/13 09:31:11;;;;;;;3.35;1.17;;;21.20;45.70;;;;;;5088548;28;20074;-52
2023/03/13 09:33:39;;;;;;;8.52;1.10;;;21.20;45.60;;;;;;5089066;28;20158;-53
2023/03/13 09:36:06;;;;;;;5.78;1.50;;;21.20;45.90;;;;;;5087452;28;20078;-47
2023/03/13 09:38:32;;;;;;;8.75;1.75;;;21.20;46.00;;;;;;5089177;28;20227;-53
2023/03/13 09:41:11;;;;;;;4.18;1.30;;;21.20;46.10;;;;;;5089290;28;20072;-54
2023/03/13 09:44:06;;;;;;;2.65;1.20;;;21.20;46.40;;;;;;5089669;28;20071;-52
2023/03/13 09:47:08;;;;;;;5.47;1.25;;;21.20;46.40;;;;;;5078423;28;20079;-51
2023/03/13 09:49:40;;;;;;;4.05;1.33;;;21.20;47.00;;;;;;5084999;28;20095;-48
2023/03/13 09:52:17;;;;;;;7.50;1.58;;;21.20;47.50;;;;;;5089278;28;20067;-50
2023/03/13 09:55:04;;;;;;;6.32;1.70;;;21.00;47.80;;;;;;5088283;28;20090;-50
2023/03/13 09:57:54;;;;;;;6.18;1.92;;;21.00;48.20;;;;;;5088906;28;20072;-50
2023/03/13 10:00:30;;;;;;;5.05;1.40;;;20.90;48.20;;;;;;5088993;28;20064;-53
2023/03/13 10:03:18;;;;;;;5.47;1.40;;;20.90;48.20;;;;;;5089858;28;20164;-51
2023/03/13 10:05:50;;;;;;;33.92;2.58;;;21.00;47.90;;;;;;5091537;28;20817;-50
2023/03/13 10:08:17;;;;;;;4.80;1.50;;;21.00;47.80;;;;;;5092831;28;20075;-50
2023/03/13 10:11:07;;;;;;;3.08;1.40;;;21.00;48.10;;;;;;5092108;28;20153;-48
2023/03/13 10:13:51;;;;;;;8.32;1.42;;;21.00;48.30;;;;;;5091950;28;20091;-50
2023/03/13 10:16:40;;;;;;;4.57;1.48;;;20.90;48.70;;;;;;5091603;28;20072;-54
2023/03/13 10:19:18;;;;;;;9.55;1.55;;;20.90;49.10;;;;;;5091597;28;20135;-51
2023/03/13 10:21:50;;;;;;;4.78;1.80;;;20.80;49.60;;;;;;5092159;28;20097;-54
2023/03/13 10:24:50;;;;;;;5.32;1.90;;;20.60;50.10;;;;;;5092313;28;20194;-52
2023/03/13 10:27:17;;;;;;;4.60;1.50;;;20.50;50.60;;;;;;5079279;28;20571;-51
2023/03/13 10:29:43;;;;;;;4.03;1.58;;;20.50;50.70;;;;;;5091758;28;20774;-49
2023/03/13 10:32:13;;;;;;;4.43;1.63;;;20.50;50.80;;;;;;5099150;28;20559;-49
2023/03/13 10:34:55;;;;;;;5.85;1.65;;;20.40;50.80;;;;;;5091443;28;20071;-49
2023/03/13 10:37:30;;;;;;;6.85;1.40;;;20.40;50.40;;;;;;5090143;28;20079;-54
2023/03/13 10:40:25;;;;;;;6.20;1.83;;;20.50;49.90;;;;;;5092720;28;20071;-52
2023/03/13 10:42:58;;;;;;;6.90;1.40;;;20.50;49.80;;;;;;5092889;28;20080;-51
2023/03/13 10:45:25;;;;;;;5.75;1.80;;;20.50;49.50;;;;;;5092567;28;20071;-54
2023/03/13 10:48:02;;;;;;;6.75;1.50;;;20.60;48.70;;;;;;5091360;28;20900;-55
2023/03/13 10:50:33;;;;;;;8.40;1.55;;;20.60;48.70;;;;;;5094181;28;20083;-54
2023/03/13 10:53:27;;;;;;;4.90;1.50;;;20.60;48.70;;;;;;5090001;28;20123;-54
2023/03/13 10:56:10;;;;;;;5.63;1.42;;;20.50;48.50;;;;;;5080317;28;20555;-50
2023/03/13 10:58:51;;;;;;;6.38;1.73;;;20.60;48.00;;;;;;5090722;28;20067;-49
2023/03/13 11:01:20;;;;;;;10.50;1.50;;;20.60;47.90;;;;;;5089916;28;20071;-49
2023/03/13 11:03:48;;;;;;;4.85;1.30;;;20.60;47.70;;;;;;5091939;28;20075;-53
2023/03/13 11:06:24;;;;;;;7.70;1.52;;;20.60;47.90;;;;;;5091211;28;20071;-55
2023/03/13 11:09:12;;;;;;;7.03;1.52;;;20.60;48.30;;;;;;5089743;28;20074;-54
2023/03/13 11:11:52;;;;;;;3.80;1.33;;;20.60;48.50;;;;;;5091206;28;20067;-48
2023/03/13 11:14:21;;;;;;;5.32;1.95;;;20.50;48.50;;;;;;5087933;28;20090;-50
2023/03/13 11:17:15;;;;;;;5.13;1.48;;;20.50;48.60;;;;;;5090700;28;20076;-52
2023/03/13 11:19:53;;;;;;;4.95;1.33;;;20.50;48.70;;;;;;5023609;28;20600;-52
2023/03/13 11:22:54;;;;;;;5.90;1.50;;;20.40;48.60;;;;;;5022677;28;20487;-49
2023/03/13 11:25:42;;;;;;;5.35;1.90;;;20.40;48.50;;;;;;5022996;28;20088;-56
2023/03/13 11:28:28;;;;;;;7.00;1.80;;;20.40;48.30;;;;;;5016133;28;20124;-51
2023/03/13 11:31:04;;;;;;;6.20;1.80;;;20.40;48.00;;;;;;5006967;28;20473;-53
2023/03/13 11:33:34;;;;;;;7.22;1.77;;;20.40;47.70;;;;;;5008864;28;20088;-51
2023/03/13 11:36:27;;;;;;;3.85;1.52;;;20.50;47.60;;;;;;5011660;28;21489;-53
2023/03/13 11:39:22;;;;;;;4.57;1.52;;;20.40;47.80;;;;;;4993601;28;20093;-50
2023/03/13 11:41:49;;;;;;;4.55;1.77;;;20.40;47.70;;;;;;5000468;28;20093;-50
2023/03/13 11:44:55;;;;;;;6.43;2.20;;;20.40;47.70;;;;;;5007953;28;20082;-53
2023/03/13 11:47:43;;;;;;;6.00;1.63;;;20.40;47.70;;;;;;5011662;28;20679;-53
2023/03/13 11:50:28;;;;;;;3.17;1.20;;;20.40;47.90;;;;;;5008536;28;20101;-51
2023/03/13 11:53:18;;;;;;;5.65;1.40;;;20.40;48.00;;;;;;5015197;28;20220;-50
2023/03/13 11:56:27;;;;;;;6.97;1.85;;;20.40;48.30;;;;;;5017387;28;20117;-54
2023/03/13 11:59:02;;;;;;;8.35;2.05;;;20.30;48.20;;;;;;5023760;28;20440;-51
2023/03/13 12:01:38;;;;;;;12.55;2.15;;;20.30;48.50;;;;;;5028222;28;20100;-49
2023/03/13 12:04:09;;;;;;;7.97;2.40;;;20.30;48.30;;;;;;5029963;28;20191;-50
2023/03/13 12:06:49;;;;;;;7.53;1.83;;;20.20;48.00;;;;;;5028092;28;20457;-53
2023/03/13 12:09:26;;;;;;;8.98;1.92;;;20.20;47.70;;;;;;5028091;28;20077;-49
2023/03/13 12:12:02;;;;;;;7.15;2.03;;;20.30;47.90;;;;;;5028509;28;20095;-53
2023/03/13 12:14:47;;;;;;;8.10;2.03;;;20.30;48.00;;;;;;5028094;28;20665;-49
2023/03/13 12:17:34;;;;;;;12.73;2.30;;;20.30;48.10;;;;;;5030781;28;20530;-48
2023/03/13 12:20:19;;;;;;;8.57;2.57;;;20.30;48.20;;;;;;5029939;28;20105;-50
2023/03/13 12:22:59;;;;;;;10.95;2.17;;;20.40;48.70;;;;;;5027438;28;20368;-49
2023/03/13 12:25:49;;;;;;;6.80;1.50;;;20.30;48.60;;;;;;5027197;28;20077;-49
2023/03/13 12:28:44;;;;;;;4.35;1.70;;;20.30;48.70;;;;;;5027273;28;20068;-49
2023/03/13 12:31:28;;;;;;;5.13;1.58;;;20.30;48.90;;;;;;5022546;28;20483;-50
2023/03/13 12:34:08;;;;;;;7.18;1.60;;;20.20;49.00;;;;;;5087539;28;20165;-52
2023/03/13 12:37:05;;;;;;;7.25;1.70;;;20.20;49.20;;;;;;5088981;28;20403;-49
2023/03/13 12:39:52;;;;;;;5.40;1.88;;;20.20;49.30;;;;;;5062365;28;20434;-50
2023/03/13 12:42:38;;;;;;;;;;;20.20;49.50;;;;;;5089691;28;20140;-50
2023/03/13 12:45:07;;;;;;;11.52;2.15;;;20.10;49.60;;;;;;5089101;28;20014;-51
2023/03/13 12:47:49;;;;;;;7.00;1.90;;;20.00;49.80;;;;;;5089193;28;20106;-47
2023/03/13 12:50:27;;;;;;;10.88;1.92;;;19.90;49.90;;;;;;5089297;28;20067;-51
2023/03/13 12:53:27;;;;;;;9.45;2.22;;;20.00;50.20;;;;;;5088885;28;20094;-55
2023/03/13 12:56:18;;;;;;;7.05;1.60;;;19.90;50.30;;;;;;5087349;28;20075;-51
2023/03/13 12:58:59;;;;;;;12.00;2.10;;;19.90;50.30;;;;;;5088457;28;20103;-52
2023/03/13 13:01:49;;;;;;;7.97;1.77;;;19.90;50.40;;;;;;5088756;28;20086;-55
2023/03/13 13:04:20;;;;;;;13.70;1.92;;;19.90;50.90;;;;;;5088391;28;20099;-48
2023/03/13 13:06:53;;;;;;;8.70;2.42;;;19.90;50.70;;;;;;5089324;28;20071;-51